createdAt,value
2023-03-06T00:04:03.246Z,1.0367892976588629
2023-03-06T00:15:01.115Z,0.8996655518394648
2023-03-06T00:21:20.597Z,1.040133779264214
2023-03-06T00:27:39.181Z,0.9866220735785953
2023-03-06T00:33:58.031Z,0.6588628762541806
2023-03-06T00:40:17.041Z,1.1438127090301002
2023-03-06T00:46:37.629Z,0.6220735785953178
2023-03-06T00:52:56.890Z,0.6688963210702341
2023-03-06T01:05:26.428Z,0.21070234113712374
2023-03-06T01:11:45.727Z,0.0903010033444816
2023-03-06T01:19:37.304Z,0.0033444816053511705
2023-03-06T01:25:56.504Z,0.010033444816053512
2023-03-06T01:32:15.703Z,0.046822742474916385
2023-03-06T01:38:34.557Z,0.11036789297658862
2023-03-06T01:48:23.078Z,0.03678929765886288
2023-03-06T01:54:41.763Z,0.07357859531772576
2023-03-06T02:07:06.520Z,0.030100334448160536
2023-03-06T02:13:26.888Z,0.0
2023-03-06T02:19:46.326Z,0.026755852842809364
2023-03-06T02:26:06.400Z,0.023411371237458192
2023-03-06T02:32:24.823Z,0.023411371237458192
2023-03-06T02:39:08.182Z,0.0033444816053511705
2023-03-06T02:45:27.058Z,0.07357859531772576
2023-03-06T02:51:45.808Z,0.006688963210702341
2023-03-06T02:58:04.400Z,0.08695652173913043
2023-03-06T03:07:49.193Z,0.27424749163879597
2023-03-06T03:18:27.052Z,0.6020066889632107
2023-03-06T03:24:45.995Z,0.7959866220735786
2023-03-06T03:31:05.348Z,1.8227424749163879
2023-03-06T03:37:24.085Z,2.8260869565217392
2023-03-06T03:43:42.809Z,3.5551839464882944
2023-03-06T03:50:01.920Z,3.5016722408026757
2023-03-06T03:56:20.368Z,1.6789297658862876
2023-03-06T04:04:35.740Z,0.8795986622073578
2023-03-06T04:10:55.001Z,1.4882943143812708
2023-03-06T04:17:43.989Z,2.1070234113712374
2023-03-06T04:24:44.868Z,2.531772575250836
2023-03-06T04:31:03.538Z,2.2140468227424748
2023-03-06T04:37:22.129Z,1.5585284280936456
2023-03-06T04:43:40.827Z,0.6889632107023411
2023-03-06T04:49:59.951Z,0.3979933110367893
2023-03-06T05:04:57.514Z,0.5484949832775919
2023-03-06T05:11:18.267Z,0.3712374581939799
2023-03-06T05:17:38.424Z,1.6020066889632107
2023-03-06T05:23:56.371Z,3.117056856187291
2023-03-06T05:30:17.250Z,3.180602006688963
2023-03-06T05:36:37.335Z,4.334448160535117
2023-03-06T05:45:40.142Z,4.645484949832776
2023-03-06T05:52:01.955Z,3.79933110367893
2023-03-06T05:58:24.216Z,4.237458193979933
2023-03-06T06:04:45.921Z,4.0602006688963215
2023-03-06T06:15:34.350Z,6.866220735785953
2023-03-06T06:21:52.590Z,7.080267558528428
2023-03-06T06:28:17.884Z,7.167224080267559
2023-03-06T06:34:38.492Z,8.565217391304348
2023-03-06T06:45:20.236Z,11.471571906354516
2023-03-06T06:51:38.557Z,11.066889632107024
2023-03-06T06:57:58.714Z,8.762541806020067
2023-03-06T07:04:18.713Z,10.003344481605351
2023-03-06T07:11:18.824Z,10.361204013377927
2023-03-06T07:27:03.038Z,8.74581939799331
2023-03-06T07:38:53.948Z,10.608695652173912
2023-03-06T07:45:15.804Z,11.023411371237458
2023-03-06T07:51:36.934Z,13.14046822742475
2023-03-06T07:57:58.512Z,13.351170568561873
2023-03-06T08:13:34.329Z,12.48494983277592
2023-03-06T08:26:50.811Z,16.093645484949832
2023-03-06T08:42:46.663Z,17.99665551839465
2023-03-06T08:49:07.961Z,19.11705685618729
2023-03-06T08:55:28.833Z,18.735785953177256
2023-03-06T09:01:49.077Z,19.876254180602007
2023-03-06T09:13:06.509Z,21.568561872909697
2023-03-06T09:19:27.485Z,20.54515050167224
2023-03-06T09:25:48.040Z,15.448160535117056
2023-03-06T09:32:11.750Z,13.153846153846153
2023-03-06T09:40:01.769Z,12.180602006688963
2023-03-06T09:49:33.383Z,8.74581939799331
2023-03-06T09:55:54.224Z,10.160535117056856
2023-03-06T10:02:14.923Z,8.37123745819398
2023-03-06T10:13:21.175Z,6.438127090301004
2023-03-06T10:25:21.992Z,2.688963210702341
2023-03-06T10:31:42.711Z,2.705685618729097
2023-03-06T10:38:03.307Z,2.698996655518395
2023-03-06T10:44:24.178Z,2.0735785953177257
2023-03-06T10:50:44.390Z,2.5183946488294313
2023-03-06T10:57:05.142Z,1.9899665551839465
2023-03-06T11:03:26.273Z,2.959866220735786
2023-03-06T11:15:49.398Z,4.133779264214047
2023-03-06T11:25:33.987Z,4.829431438127091
2023-03-06T11:31:54.808Z,4.444816053511706
2023-03-06T11:38:15.797Z,3.5652173913043477
2023-03-06T11:44:36.752Z,4.2675585284280935
2023-03-06T11:51:25.699Z,3.277591973244147
2023-03-06T11:57:47.252Z,3.0668896321070234
2023-03-06T12:04:09.191Z,3.3545150501672243
2023-03-06T12:10:30.750Z,3.789297658862876
2023-03-06T12:16:52.490Z,1.7926421404682273
2023-03-06T12:24:40.441Z,1.2040133779264215
2023-03-06T12:31:02.300Z,0.8093645484949833
2023-03-06T12:37:23.739Z,0.2842809364548495
2023-03-06T12:43:45.450Z,0.12709030100334448
2023-03-06T12:50:09.213Z,0.34448160535117056
2023-03-06T12:57:56.612Z,0.41471571906354515
2023-03-06T13:04:18.216Z,0.6488294314381271
2023-03-06T13:10:40.573Z,0.4882943143812709
2023-03-06T13:17:05.197Z,0.010033444816053512
2023-03-06T13:23:28.293Z,0.08695652173913043
2023-03-06T13:29:50.323Z,0.09364548494983277
2023-03-06T13:36:12.504Z,0.20066889632107024
2023-03-06T13:42:33.968Z,0.14046822742474915
2023-03-06T13:48:55.568Z,0.006688963210702341
2023-03-06T13:55:17.228Z,0.06688963210702341
2023-03-06T14:01:39.739Z,0.023411371237458192
2023-03-06T14:08:01.390Z,0.046822742474916385
2023-03-06T14:14:22.879Z,0.010033444816053512
2023-03-06T14:25:34.800Z,0.056856187290969896
2023-03-06T14:31:56.088Z,0.020066889632107024
2023-03-06T14:38:17.663Z,0.08361204013377926
2023-03-06T14:45:36.867Z,0.13043478260869565
2023-03-06T14:51:58.026Z,0.020066889632107024
2023-03-06T14:58:19.376Z,0.05016722408026756
2023-03-06T15:04:40.652Z,0.033444816053511704
2023-03-06T15:11:02.213Z,0.09364548494983277
2023-03-06T15:17:23.483Z,0.030100334448160536
2023-03-06T15:26:32.520Z,0.7792642140468228
2023-03-06T15:32:53.957Z,0.13043478260869565
2023-03-06T15:39:16.994Z,0.8561872909698997
2023-03-06T15:45:38.622Z,1.4448160535117056
2023-03-06T15:52:00.483Z,0.8294314381270903
2023-03-06T15:58:21.954Z,1.4849498327759196
2023-03-06T16:04:43.273Z,1.3076923076923077
2023-03-06T16:13:22.735Z,1.0133779264214047
2023-03-06T16:19:44.282Z,0.8862876254180602
2023-03-06T16:26:06.129Z,0.979933110367893
2023-03-06T16:43:08.004Z,0.3879598662207358
2023-03-06T16:49:29.256Z,0.46488294314381273
2023-03-06T16:55:50.271Z,1.3076923076923077
2023-03-06T17:02:12.063Z,0.9933110367892977
2023-03-06T17:12:49.548Z,1.2408026755852843
2023-03-06T17:21:39.428Z,1.9264214046822743
2023-03-06T17:33:07.579Z,2.408026755852843
2023-03-06T17:39:27.168Z,2.3645484949832776
2023-03-06T17:50:26.044Z,3.0869565217391304
2023-03-06T17:56:44.852Z,3.5050167224080266
2023-03-06T18:03:05.949Z,3.3812709030100336
2023-03-06T18:09:24.772Z,4.418060200668896
2023-03-06T18:15:43.489Z,4.725752508361204
2023-03-06T18:26:58.653Z,7.247491638795987
2023-03-06T18:36:21.103Z,4.929765886287625
2023-03-06T18:42:40.005Z,5.177257525083612
2023-03-06T18:48:59.511Z,5.157190635451505
2023-03-06T19:03:38.815Z,5.7725752508361206
2023-03-06T19:17:25.228Z,4.331103678929765
2023-03-06T19:23:43.827Z,5.183946488294314
2023-03-06T19:30:03.214Z,4.645484949832776
2023-03-06T19:36:22.519Z,4.889632107023411
2023-03-06T19:48:38.406Z,4.096989966555184
2023-03-06T19:54:57.332Z,4.806020066889632
2023-03-06T20:06:23.533Z,4.7792642140468224
2023-03-06T20:12:41.958Z,4.782608695652174
2023-03-06T20:19:00.727Z,5.478260869565218
2023-03-06T20:25:19.397Z,4.665551839464883
2023-03-06T20:31:37.397Z,5.096989966555184
2023-03-06T20:37:56.314Z,6.137123745819398
2023-03-06T20:44:14.800Z,6.722408026755853
2023-03-06T20:50:33.244Z,6.381270903010034
2023-03-06T20:56:51.641Z,6.374581939799331
2023-03-06T21:03:11.592Z,6.478260869565218
2023-03-06T21:09:30.088Z,7.615384615384615
2023-03-06T21:33:34.933Z,11.464882943143813
2023-03-06T21:39:53.977Z,12.538461538461538
2023-03-06T21:52:49.118Z,16.19732441471572
2023-03-06T22:06:13.119Z,20.073578595317727
2023-03-06T22:12:31.245Z,21.765886287625417
2023-03-06T22:18:50.121Z,26.157190635451506
2023-03-06T22:25:08.373Z,28.45819397993311
2023-03-06T22:39:30.699Z,36.42809364548495
2023-03-06T22:47:14.864Z,41.123745819397996
2023-03-06T23:04:21.801Z,51.80936454849498
2023-03-06T23:10:40.807Z,55.836120401337794
2023-03-06T23:22:23.409Z,57.30100334448161
2023-03-06T23:28:41.942Z,62.33779264214047
2023-03-06T23:35:01.389Z,63.74581939799331
2023-03-06T23:45:27.080Z,64.87959866220736
2023-03-06T23:51:45.340Z,63.903010033444815
